sensor_id;sensor_type;location;lat;lon;timestamp;temperature;humidity
57242;DHT22;43095;53.302;5.786;2023-04-25T10:31:52;9.20;99.90
57242;DHT22;43095;53.302;5.786;2023-04-25T10:34:23;9.30;99.90
57242;DHT22;43095;53.302;5.786;2023-04-25T10:36:52;9.40;99.90
57242;DHT22;43095;53.302;5.786;2023-04-25T10:39:24;9.00;99.90
57242;DHT22;43095;53.302;5.786;2023-04-25T10:41:58;9.00;99.90
57242;DHT22;43095;53.302;5.786;2023-04-25T10:44:29;8.90;99.90
57242;DHT22;43095;53.302;5.786;2023-04-25T10:46:58;9.00;99.90
57242;DHT22;43095;53.302;5.786;2023-04-25T10:49:34;9.10;99.90
57242;DHT22;43095;53.302;5.786;2023-04-25T10:52:24;9.20;99.90
57242;DHT22;43095;53.302;5.786;2023-04-25T10:54:56;9.50;99.90
57242;DHT22;43095;53.302;5.786;2023-04-25T10:57:38;9.90;99.90
57242;DHT22;43095;53.302;5.786;2023-04-25T11:00:19;9.10;99.90
57242;DHT22;43095;53.302;5.786;2023-04-25T11:02:52;8.40;99.90
57242;DHT22;43095;53.302;5.786;2023-04-25T11:07:53;7.20;99.90
57242;DHT22;43095;53.302;5.786;2023-04-25T11:10:33;7.20;99.90
57242;DHT22;43095;53.302;5.786;2023-04-25T11:13:03;7.40;99.90
57242;DHT22;43095;53.302;5.786;2023-04-25T11:15:31;7.30;99.90
57242;DHT22;43095;53.302;5.786;2023-04-25T11:17:58;7.90;99.90
57242;DHT22;43095;53.302;5.786;2023-04-25T11:20:25;8.00;99.90
57242;DHT22;43095;53.302;5.786;2023-04-25T11:22:57;8.00;99.90
57242;DHT22;43095;53.302;5.786;2023-04-25T11:25:26;8.00;99.90
57242;DHT22;43095;53.302;5.786;2023-04-25T11:27:58;7.70;99.90
57242;DHT22;43095;53.302;5.786;2023-04-25T11:30:28;7.40;99.90
57242;DHT22;43095;53.302;5.786;2023-04-25T11:32:57;7.50;99.90
57242;DHT22;43095;53.302;5.786;2023-04-25T11:35:25;7.40;99.90
57242;DHT22;43095;53.302;5.786;2023-04-25T11:37:52;7.50;99.90
57242;DHT22;43095;53.302;5.786;2023-04-25T11:40:19;7.60;99.90
57242;DHT22;43095;53.302;5.786;2023-04-25T11:42:47;7.70;99.90
57242;DHT22;43095;53.302;5.786;2023-04-25T11:45:14;7.90;99.90
57242;DHT22;43095;53.302;5.786;2023-04-25T11:47:42;8.60;99.90
57242;DHT22;43095;53.302;5.786;2023-04-25T11:50:09;8.50;99.90
57242;DHT22;43095;53.302;5.786;2023-04-25T11:52:41;8.80;99.90
57242;DHT22;43095;53.302;5.786;2023-04-25T11:55:12;9.40;99.90
57242;DHT22;43095;53.302;5.786;2023-04-25T11:57:43;9.70;99.90
57242;DHT22;43095;53.302;5.786;2023-04-25T12:00:17;9.60;99.90
57242;DHT22;43095;53.302;5.786;2023-04-25T12:02:47;9.90;99.90
57242;DHT22;43095;53.302;5.786;2023-04-25T12:05:15;10.00;99.90
57242;DHT22;43095;53.302;5.786;2023-04-25T12:07:58;10.10;99.90
57242;DHT22;43095;53.302;5.786;2023-04-25T12:10:25;10.50;99.90
57242;DHT22;43095;53.302;5.786;2023-04-25T12:12:53;10.70;99.90
57242;DHT22;43095;53.302;5.786;2023-04-25T12:15:25;10.70;99.90
57242;DHT22;43095;53.302;5.786;2023-04-25T12:17:53;11.00;99.90
57242;DHT22;43095;53.302;5.786;2023-04-25T12:20:25;10.70;99.90
57242;DHT22;43095;53.302;5.786;2023-04-25T12:22:52;10.10;99.90
57242;DHT22;43095;53.302;5.786;2023-04-25T12:25:36;9.50;99.90
57242;DHT22;43095;53.302;5.786;2023-04-25T12:31:05;9.10;99.90
57242;DHT22;43095;53.302;5.786;2023-04-25T12:33:37;9.20;99.90
57242;DHT22;43095;53.302;5.786;2023-04-25T12:36:05;9.50;99.90
57242;DHT22;43095;53.302;5.786;2023-04-25T12:38:41;9.80;99.90
57242;DHT22;43095;53.302;5.786;2023-04-25T12:41:09;10.10;99.90
57242;DHT22;43095;53.302;5.786;2023-04-25T12:43:36;10.10;99.90
57242;DHT22;43095;53.302;5.786;2023-04-25T12:46:03;10.40;99.90
57242;DHT22;43095;53.302;5.786;2023-04-25T12:48:30;10.60;99.90
57242;DHT22;43095;53.302;5.786;2023-04-25T12:50:58;10.90;99.00
57242;DHT22;43095;53.302;5.786;2023-04-25T12:53:25;10.70;99.90
57242;DHT22;43095;53.302;5.786;2023-04-25T12:55:52;10.40;99.90
57242;DHT22;43095;53.302;5.786;2023-04-25T12:58:19;10.20;99.90
57242;DHT22;43095;53.302;5.786;2023-04-25T13:00:46;9.40;99.90
57242;DHT22;43095;53.302;5.786;2023-04-25T13:03:14;9.20;99.90
57242;DHT22;43095;53.302;5.786;2023-04-25T13:05:45;9.20;99.90
57242;DHT22;43095;53.302;5.786;2023-04-25T13:08:13;10.00;99.90
57242;DHT22;43095;53.302;5.786;2023-04-25T13:10:40;10.20;99.90
57242;DHT22;43095;53.302;5.786;2023-04-25T13:13:08;10.20;99.90
57242;DHT22;43095;53.302;5.786;2023-04-25T13:15:35;10.70;99.90
57242;DHT22;43095;53.302;5.786;2023-04-25T13:18:04;11.10;99.90
57242;DHT22;43095;53.302;5.786;2023-04-25T13:20:32;11.00;99.90
57242;DHT22;43095;53.302;5.786;2023-04-25T13:22:59;11.40;99.90
57242;DHT22;43095;53.302;5.786;2023-04-25T13:25:28;10.50;99.90
57242;DHT22;43095;53.302;5.786;2023-04-25T13:27:57;10.40;99.90
57242;DHT22;43095;53.302;5.786;2023-04-25T13:30:24;10.60;99.90
57242;DHT22;43095;53.302;5.786;2023-04-25T13:32:52;10.70;99.90
57242;DHT22;43095;53.302;5.786;2023-04-25T13:35:19;10.80;96.70
57242;DHT22;43095;53.302;5.786;2023-04-25T13:37:47;10.00;97.30
57242;DHT22;43095;53.302;5.786;2023-04-25T13:40:15;10.20;94.40
57242;DHT22;43095;53.302;5.786;2023-04-25T13:42:42;9.40;99.90
57242;DHT22;43095;53.302;5.786;2023-04-25T13:45:11;9.60;99.90
57242;DHT22;43095;53.302;5.786;2023-04-25T13:47:38;10.00;99.90
57242;DHT22;43095;53.302;5.786;2023-04-25T13:50:06;10.10;99.00
57242;DHT22;43095;53.302;5.786;2023-04-25T13:52:34;10.80;98.90
57242;DHT22;43095;53.302;5.786;2023-04-25T13:55:01;11.40;97.70
57242;DHT22;43095;53.302;5.786;2023-04-25T13:57:31;11.10;92.50
57242;DHT22;43095;53.302;5.786;2023-04-25T13:59:58;11.70;88.50
57242;DHT22;43095;53.302;5.786;2023-04-25T14:02:26;11.30;84.10
57242;DHT22;43095;53.302;5.786;2023-04-25T14:04:53;11.30;89.50
57242;DHT22;43095;53.302;5.786;2023-04-25T14:07:20;10.50;99.90
57242;DHT22;43095;53.302;5.786;2023-04-25T14:09:48;10.20;99.90
57242;DHT22;43095;53.302;5.786;2023-04-25T14:12:16;10.90;99.90
57242;DHT22;43095;53.302;5.786;2023-04-25T14:14:43;10.60;99.90
57242;DHT22;43095;53.302;5.786;2023-04-25T14:17:10;10.90;96.60
57242;DHT22;43095;53.302;5.786;2023-04-25T14:19:38;10.50;97.60
57242;DHT22;43095;53.302;5.786;2023-04-25T14:22:10;10.40;99.90
57242;DHT22;43095;53.302;5.786;2023-04-25T14:24:37;10.10;95.50
57242;DHT22;43095;53.302;5.786;2023-04-25T14:27:05;9.90;99.50
57242;DHT22;43095;53.302;5.786;2023-04-25T14:29:32;10.20;97.60
57242;DHT22;43095;53.302;5.786;2023-04-25T14:31:59;10.50;98.50
57242;DHT22;43095;53.302;5.786;2023-04-25T14:34:27;10.80;95.00
57242;DHT22;43095;53.302;5.786;2023-04-25T14:36:54;10.50;98.80
57242;DHT22;43095;53.302;5.786;2023-04-25T14:39:21;10.20;99.90
57242;DHT22;43095;53.302;5.786;2023-04-25T14:41:48;9.70;99.90
57242;DHT22;43095;53.302;5.786;2023-04-25T14:44:16;9.40;99.90
57242;DHT22;43095;53.302;5.786;2023-04-25T14:46:43;9.50;99.90
57242;DHT22;43095;53.302;5.786;2023-04-25T14:49:11;10.00;99.90
57242;DHT22;43095;53.302;5.786;2023-04-25T14:51:38;10.50;99.90
57242;DHT22;43095;53.302;5.786;2023-04-25T14:54:05;10.30;98.20
57242;DHT22;43095;53.302;5.786;2023-04-25T14:56:32;10.70;94.30
57242;DHT22;43095;53.302;5.786;2023-04-25T14:58:59;10.90;75.70
57242;DHT22;43095;53.302;5.786;2023-04-25T15:01:27;11.00;72.70
57242;DHT22;43095;53.302;5.786;2023-04-25T15:03:54;11.00;70.90
57242;DHT22;43095;53.302;5.786;2023-04-25T15:06:23;11.10;75.00
57242;DHT22;43095;53.302;5.786;2023-04-25T15:08:53;10.80;78.80
57242;DHT22;43095;53.302;5.786;2023-04-25T15:13:48;9.40;99.90
57242;DHT22;43095;53.302;5.786;2023-04-25T15:16:16;9.40;99.90
57242;DHT22;43095;53.302;5.786;2023-04-25T15:18:44;9.40;99.90
57242;DHT22;43095;53.302;5.786;2023-04-25T15:21:11;9.50;99.90
57242;DHT22;43095;53.302;5.786;2023-04-25T15:23:39;9.60;99.90
57242;DHT22;43095;53.302;5.786;2023-04-25T15:26:06;9.60;99.90
57242;DHT22;43095;53.302;5.786;2023-04-25T15:28:33;9.60;99.90
57242;DHT22;43095;53.302;5.786;2023-04-25T15:31:00;10.10;99.90
57242;DHT22;43095;53.302;5.786;2023-04-25T15:33:27;10.60;92.70
57242;DHT22;43095;53.302;5.786;2023-04-25T15:35:55;10.70;72.50
57242;DHT22;43095;53.302;5.786;2023-04-25T15:38:24;10.80;75.70
57242;DHT22;43095;53.302;5.786;2023-04-25T15:40:52;11.00;80.30
57242;DHT22;43095;53.302;5.786;2023-04-25T15:43:19;11.00;78.10
57242;DHT22;43095;53.302;5.786;2023-04-25T15:45:46;10.90;77.50
57242;DHT22;43095;53.302;5.786;2023-04-25T15:48:14;11.20;81.60
57242;DHT22;43095;53.302;5.786;2023-04-25T15:50:41;10.70;74.80
57242;DHT22;43095;53.302;5.786;2023-04-25T15:53:09;11.10;76.60
57242;DHT22;43095;53.302;5.786;2023-04-25T15:55:36;11.20;80.60
57242;DHT22;43095;53.302;5.786;2023-04-25T15:58:03;10.50;78.00
57242;DHT22;43095;53.302;5.786;2023-04-25T16:00:30;10.10;74.90
57242;DHT22;43095;53.302;5.786;2023-04-25T16:03:01;10.70;77.20
57242;DHT22;43095;53.302;5.786;2023-04-25T16:05:29;11.10;71.30
57242;DHT22;43095;53.302;5.786;2023-04-25T16:07:56;10.20;70.90
57242;DHT22;43095;53.302;5.786;2023-04-25T16:10:23;10.30;81.30
57242;DHT22;43095;53.302;5.786;2023-04-25T16:12:50;10.70;76.10
57242;DHT22;43095;53.302;5.786;2023-04-25T16:15:18;10.40;94.80
57242;DHT22;43095;53.302;5.786;2023-04-25T16:17:45;9.80;91.60
57242;DHT22;43095;53.302;5.786;2023-04-25T16:20:12;9.90;82.90
57242;DHT22;43095;53.302;5.786;2023-04-25T16:22:42;10.00;91.70
57242;DHT22;43095;53.302;5.786;2023-04-25T16:25:10;10.20;99.90
57242;DHT22;43095;53.302;5.786;2023-04-25T16:27:38;10.50;95.10
57242;DHT22;43095;53.302;5.786;2023-04-25T16:30:09;10.50;88.90
57242;DHT22;43095;53.302;5.786;2023-04-25T16:32:37;10.70;85.80
57242;DHT22;43095;53.302;5.786;2023-04-25T16:35:06;10.70;77.60
57242;DHT22;43095;53.302;5.786;2023-04-25T16:37:33;10.50;73.70
57242;DHT22;43095;53.302;5.786;2023-04-25T16:40:00;10.40;79.30
57242;DHT22;43095;53.302;5.786;2023-04-25T16:42:27;10.40;79.20
57242;DHT22;43095;53.302;5.786;2023-04-25T16:44:54;10.10;86.50
57242;DHT22;43095;53.302;5.786;2023-04-25T16:47:21;9.60;89.00
57242;DHT22;43095;53.302;5.786;2023-04-25T16:49:49;9.20;95.80
57242;DHT22;43095;53.302;5.786;2023-04-25T16:52:16;9.10;96.70
57242;DHT22;43095;53.302;5.786;2023-04-25T16:54:43;8.90;96.50
57242;DHT22;43095;53.302;5.786;2023-04-25T16:57:11;9.00;96.70
57242;DHT22;43095;53.302;5.786;2023-04-25T16:59:39;9.30;97.10
57242;DHT22;43095;53.302;5.786;2023-04-25T17:02:10;9.70;99.90
57242;DHT22;43095;53.302;5.786;2023-04-25T17:04:39;9.60;99.90
57242;DHT22;43095;53.302;5.786;2023-04-25T17:07:09;9.80;99.90
57242;DHT22;43095;53.302;5.786;2023-04-25T17:09:36;9.60;99.90
57242;DHT22;43095;53.302;5.786;2023-04-25T17:12:04;9.50;99.90
57242;DHT22;43095;53.302;5.786;2023-04-25T17:14:32;9.20;99.90
57242;DHT22;43095;53.302;5.786;2023-04-25T17:17:01;9.40;99.90
57242;DHT22;43095;53.302;5.786;2023-04-25T17:19:29;9.70;99.90
57242;DHT22;43095;53.302;5.786;2023-04-25T17:21:57;9.70;99.90
57242;DHT22;43095;53.302;5.786;2023-04-25T17:24:24;8.90;99.90
57242;DHT22;43095;53.302;5.786;2023-04-25T17:26:52;8.90;99.90
57242;DHT22;43095;53.302;5.786;2023-04-25T17:29:19;8.80;99.90
57242;DHT22;43095;53.302;5.786;2023-04-25T17:31:49;8.50;99.90
57242;DHT22;43095;53.302;5.786;2023-04-25T17:34:17;8.50;99.90
57242;DHT22;43095;53.302;5.786;2023-04-25T17:36:47;7.80;99.90
57242;DHT22;43095;53.302;5.786;2023-04-25T17:39:14;7.80;99.90
57242;DHT22;43095;53.302;5.786;2023-04-25T17:41:43;7.80;99.90
57242;DHT22;43095;53.302;5.786;2023-04-25T17:44:11;7.80;99.90
57242;DHT22;43095;53.302;5.786;2023-04-25T17:46:38;7.70;99.90
57242;DHT22;43095;53.302;5.786;2023-04-25T17:49:06;7.70;99.90
57242;DHT22;43095;53.302;5.786;2023-04-25T17:51:36;7.70;99.90
57242;DHT22;43095;53.302;5.786;2023-04-25T17:54:05;7.90;99.90
57242;DHT22;43095;53.302;5.786;2023-04-25T17:56:35;7.80;99.90
57242;DHT22;43095;53.302;5.786;2023-04-25T17:59:03;7.90;99.90
57242;DHT22;43095;53.302;5.786;2023-04-25T18:01:31;7.90;99.90
57242;DHT22;43095;53.302;5.786;2023-04-25T18:03:58;7.70;99.90
57242;DHT22;43095;53.302;5.786;2023-04-25T18:06:26;7.70;99.90
57242;DHT22;43095;53.302;5.786;2023-04-25T18:08:54;7.60;99.90
57242;DHT22;43095;53.302;5.786;2023-04-25T18:11:23;7.50;99.90
57242;DHT22;43095;53.302;5.786;2023-04-25T18:16:18;7.50;99.90
57242;DHT22;43095;53.302;5.786;2023-04-25T18:18:47;7.50;99.90
57242;DHT22;43095;53.302;5.786;2023-04-25T18:21:21;7.40;99.90
57242;DHT22;43095;53.302;5.786;2023-04-25T18:23:48;7.40;99.90
57242;DHT22;43095;53.302;5.786;2023-04-25T18:26:15;7.30;99.90
57242;DHT22;43095;53.302;5.786;2023-04-25T18:28:42;7.30;99.90
57242;DHT22;43095;53.302;5.786;2023-04-25T18:31:09;7.20;99.90
57242;DHT22;43095;53.302;5.786;2023-04-25T18:33:37;7.00;99.90
57242;DHT22;43095;53.302;5.786;2023-04-25T18:36:05;7.00;99.90
57242;DHT22;43095;53.302;5.786;2023-04-25T18:38:32;6.70;99.90
57242;DHT22;43095;53.302;5.786;2023-04-25T18:41:02;6.70;99.90
57242;DHT22;43095;53.302;5.786;2023-04-25T18:43:58;6.70;99.90
57242;DHT22;43095;53.302;5.786;2023-04-25T18:46:34;6.80;99.90
57242;DHT22;43095;53.302;5.786;2023-04-25T18:49:02;6.80;99.90
57242;DHT22;43095;53.302;5.786;2023-04-25T18:51:32;6.80;99.90
57242;DHT22;43095;53.302;5.786;2023-04-25T18:54:00;6.70;99.90
57242;DHT22;43095;53.302;5.786;2023-04-25T18:56:30;6.50;99.90
57242;DHT22;43095;53.302;5.786;2023-04-25T18:58:57;6.60;99.90
57242;DHT22;43095;53.302;5.786;2023-04-25T19:01:24;6.60;99.90
57242;DHT22;43095;53.302;5.786;2023-04-25T19:03:52;6.60;99.90
57242;DHT22;43095;53.302;5.786;2023-04-25T19:06:26;6.60;99.90
57242;DHT22;43095;53.302;5.786;2023-04-25T19:08:55;6.50;99.90
57242;DHT22;43095;53.302;5.786;2023-04-25T19:11:23;6.40;99.90
57242;DHT22;43095;53.302;5.786;2023-04-25T19:13:51;6.40;99.90
57242;DHT22;43095;53.302;5.786;2023-04-25T19:16:18;6.30;99.90
57242;DHT22;43095;53.302;5.786;2023-04-25T19:18:45;6.40;99.90
57242;DHT22;43095;53.302;5.786;2023-04-25T19:21:13;6.40;99.90
57242;DHT22;43095;53.302;5.786;2023-04-25T19:23:40;6.30;99.90
57242;DHT22;43095;53.302;5.786;2023-04-25T19:26:07;6.30;99.90
57242;DHT22;43095;53.302;5.786;2023-04-25T19:28:35;6.30;99.90
57242;DHT22;43095;53.302;5.786;2023-04-25T19:31:02;6.40;99.90
57242;DHT22;43095;53.302;5.786;2023-04-25T19:33:29;6.40;99.90
57242;DHT22;43095;53.302;5.786;2023-04-25T19:35:56;6.30;99.90
57242;DHT22;43095;53.302;5.786;2023-04-25T19:38:24;6.30;99.90
57242;DHT22;43095;53.302;5.786;2023-04-25T19:40:51;6.20;99.90
57242;DHT22;43095;53.302;5.786;2023-04-25T19:43:18;6.30;99.90
57242;DHT22;43095;53.302;5.786;2023-04-25T19:45:45;6.20;99.90
57242;DHT22;43095;53.302;5.786;2023-04-25T19:48:13;6.30;99.90
57242;DHT22;43095;53.302;5.786;2023-04-25T19:50:40;6.30;99.90
57242;DHT22;43095;53.302;5.786;2023-04-25T19:53:07;6.20;99.90
